TimeMST,TemperatureF,Dew PointF,Humidity,Sea Level PressureIn,VisibilityMPH,Wind Direction,Wind SpeedMPH,Gust SpeedMPH,PrecipitationIn,Events,Conditions,WindDirDegrees,DateUTC
12:52 AM,44.1,41.0,89,29.71,-9999.0,Calm,Calm,-,N/A,,Unknown,0,2012-11-18 07:52:00
1:52 AM,42.1,39.9,92,29.86,-9999.0,North,3.5,-,0.20,,Unknown,360,2012-11-18 08:52:00
2:52 AM,39.9,39.0,97,29.92,-9999.0,Calm,Calm,-,0.17,,Unknown,0,2012-11-18 09:52:00
3:52 AM,39.0,37.0,93,29.97,-9999.0,Calm,Calm,-,0.11,,Unknown,0,2012-11-18 10:52:00
4:52 AM,37.9,36.0,93,29.99,-9999.0,Calm,Calm,-,0.03,,Unknown,0,2012-11-18 11:52:00
5:52 AM,36.0,34.0,93,30.02,-9999.0,Calm,Calm,-,N/A,,Unknown,0,2012-11-18 12:52:00
6:52 AM,36.0,34.0,93,30.04,-9999.0,Calm,Calm,-,N/A,,Unknown,0,2012-11-18 13:52:00
7:52 AM,35.1,33.1,92,30.04,-9999.0,NW,3.5,-,N/A,,Unknown,310,2012-11-18 14:52:00
8:52 AM,36.0,33.1,89,30.07,-9999.0,North,3.5,-,N/A,,Unknown,350,2012-11-18 15:52:00
9:52 AM,36.0,33.1,89,30.08,-9999.0,Calm,Calm,-,N/A,,Unknown,0,2012-11-18 16:52:00
10:52 AM,39.0,36.0,89,30.07,-9999.0,Calm,Calm,-,N/A,,Unknown,0,2012-11-18 17:52:00
11:52 AM,42.1,37.9,85,30.05,-9999.0,Calm,Calm,-,N/A,,Unknown,0,2012-11-18 18:52:00
12:52 PM,44.1,39.0,82,30.04,-9999.0,Calm,Calm,-,N/A,,Unknown,0,2012-11-18 19:52:00
1:52 PM,44.1,39.9,85,30.04,-9999.0,Calm,Calm,-,N/A,,Unknown,0,2012-11-18 20:52:00
2:52 PM,46.0,39.9,79,30.04,-9999.0,North,3.5,-,N/A,,Unknown,350,2012-11-18 21:52:00
3:52 PM,44.1,37.9,79,30.03,-9999.0,North,3.5,-,N/A,,Unknown,360,2012-11-18 22:52:00
4:52 PM,43.0,39.0,86,30.04,-9999.0,Calm,Calm,-,N/A,,Unknown,0,2012-11-18 23:52:00
5:52 PM,41.0,37.9,89,30.06,-9999.0,Calm,Calm,-,N/A,,Unknown,0,2012-11-19 00:52:00
6:52 PM,39.9,37.0,89,30.06,-9999.0,Calm,Calm,-,N/A,,Unknown,0,2012-11-19 01:52:00
7:00 PM,-9999,-9999,N/A,-9999,-9999.0,North,-9999.0,-,N/A,,Unknown,0,2012-11-19 02:00:00
7:52 PM,39.0,37.0,93,30.07,-9999.0,Calm,Calm,-,N/A,,Unknown,0,2012-11-19 02:52:00
8:52 PM,39.0,37.0,93,30.07,-9999.0,Calm,Calm,-,N/A,,Unknown,0,2012-11-19 03:52:00
9:52 PM,39.0,36.0,89,30.07,-9999.0,Calm,Calm,-,N/A,,Unknown,0,2012-11-19 04:52:00
10:52 PM,37.9,36.0,93,30.07,-9999.0,Calm,Calm,-,N/A,,Unknown,0,2012-11-19 05:52:00
11:52 PM,37.9,35.1,89,30.07,-9999.0,Calm,Calm,-,N/A,,Unknown,0,2012-11-19 06:52:00